createdAt,value
2022-12-08T00:01:15.518Z,100475.31
2022-12-08T00:03:43.558Z,100465.28
2022-12-08T00:06:50.292Z,100466.94
2022-12-08T00:09:38.567Z,100459.13
2022-12-08T00:12:08.116Z,100459.09
2022-12-08T00:14:40.847Z,100454.09
2022-12-08T00:17:09.869Z,100455.72
2022-12-08T00:19:39.186Z,100460.88
2022-12-08T00:22:10.329Z,100460.84
2022-12-08T00:24:39.887Z,100454.91
2022-12-08T00:27:09.504Z,100451.53
2022-12-08T00:29:37.054Z,100450.53
2022-12-08T00:32:04.956Z,100427.72
2022-12-08T00:34:33.124Z,100452.25
2022-12-08T00:37:00.677Z,100435.25
2022-12-08T00:39:27.706Z,100442.91
2022-12-08T00:42:12.674Z,100440.34
2022-12-08T00:44:43.844Z,100437.78
2022-12-08T00:47:11.645Z,100438.69
2022-12-08T00:49:38.561Z,100425.91
2022-12-08T00:52:05.605Z,100429.13
2022-12-08T00:54:32.638Z,100425.94
2022-12-08T00:56:59.576Z,100431.13
2022-12-08T00:59:26.641Z,100434.28
2022-12-08T01:01:53.521Z,100429.09
2022-12-08T01:04:21.015Z,100431.81
2022-12-08T01:06:48.259Z,100441.06
2022-12-08T01:09:16.306Z,100442.09
2022-12-08T01:11:44.762Z,100435.41
2022-12-08T01:14:12.898Z,100440.44
2022-12-08T01:16:41.596Z,100440.41
2022-12-08T01:19:11.235Z,100437.06
2022-12-08T01:21:38.260Z,100448.22
2022-12-08T01:24:05.649Z,100438.84
2022-12-08T01:26:32.581Z,100407.75
2022-12-08T01:28:59.540Z,100442.34
2022-12-08T01:31:26.594Z,100438.00
2022-12-08T01:33:53.592Z,100433.91
2022-12-08T01:36:25.140Z,100442.31
2022-12-08T01:38:53.518Z,100433.78
2022-12-08T01:41:23.390Z,100440.66
2022-12-08T01:44:08.562Z,100439.00
2022-12-08T01:46:38.742Z,100429.69
2022-12-08T01:49:19.608Z,100436.28
2022-12-08T01:51:59.195Z,100438.09
2022-12-08T01:54:42.726Z,100431.22
2022-12-08T01:57:17.068Z,100427.94
2022-12-08T01:59:51.396Z,100436.34
2022-12-08T02:02:18.429Z,100429.69
2022-12-08T02:04:45.537Z,100434.88
2022-12-08T02:07:14.813Z,100427.94
2022-12-08T02:09:42.090Z,100428.06
2022-12-08T02:12:10.455Z,100426.50
2022-12-08T02:15:01.837Z,100428.13
2022-12-08T02:17:57.569Z,100415.19
2022-12-08T02:20:38.046Z,100424.78
2022-12-08T02:23:23.241Z,100409.59
2022-12-08T02:26:37.040Z,100397.59
2022-12-08T02:29:18.610Z,100402.53
2022-12-08T02:32:12.017Z,100401.63
2022-12-08T02:35:08.097Z,100391.66
2022-12-08T02:38:18.517Z,100388.13
2022-12-08T02:40:58.081Z,100391.63
2022-12-08T02:43:45.546Z,100390.94
2022-12-08T02:46:18.197Z,100393.41
2022-12-08T02:48:45.699Z,100396.03
2022-12-08T02:51:12.616Z,100395.00
2022-12-08T02:53:40.665Z,100389.88
2022-12-08T02:56:38.073Z,100386.41
2022-12-08T02:59:28.213Z,100382.25
2022-12-08T03:02:25.841Z,100397.34
2022-12-08T03:05:31.916Z,100381.53
2022-12-08T03:08:41.462Z,100376.53
2022-12-08T03:11:33.555Z,100351.97
2022-12-08T03:14:03.876Z,100377.44
2022-12-08T03:16:34.244Z,100377.34
2022-12-08T03:19:09.729Z,100361.38
2022-12-08T03:21:38.313Z,100366.25
2022-12-08T03:24:08.186Z,100363.59
2022-12-08T03:26:41.871Z,100368.69
2022-12-08T03:29:08.805Z,100364.47
2022-12-08T03:31:50.633Z,100361.06
2022-12-08T03:34:18.897Z,100362.81
2022-12-08T03:36:46.330Z,100360.38
2022-12-08T03:39:13.413Z,100363.50
2022-12-08T03:41:40.315Z,100356.94
2022-12-08T03:44:07.457Z,100362.16
2022-12-08T03:46:34.376Z,100355.31
2022-12-08T03:49:01.386Z,100345.03
2022-12-08T03:51:28.501Z,100352.50
2022-12-08T03:53:55.466Z,100347.75
2022-12-08T03:56:31.801Z,100347.66
2022-12-08T03:58:59.333Z,100338.25
2022-12-08T04:01:27.501Z,100339.19
2022-12-08T04:03:54.551Z,100342.59
2022-12-08T04:06:22.228Z,100333.22
2022-12-08T04:08:50.827Z,100325.44
2022-12-08T04:11:18.992Z,100326.16
2022-12-08T04:13:46.263Z,100340.66
2022-12-08T04:16:22.694Z,100327.94
2022-12-08T04:18:50.039Z,100328.78
2022-12-08T04:21:17.187Z,100330.34
2022-12-08T04:23:44.149Z,100333.06
2022-12-08T04:26:11.898Z,100341.56
2022-12-08T04:28:38.926Z,100335.59
2022-12-08T04:31:06.530Z,100339.97
2022-12-08T04:33:33.575Z,100330.78
2022-12-08T04:36:00.586Z,100340.78
2022-12-08T04:38:28.531Z,100342.41
2022-12-08T04:40:55.453Z,100340.78
2022-12-08T04:43:22.538Z,100344.84
2022-12-08T04:45:49.529Z,100336.66
2022-12-08T04:48:16.588Z,100339.88
2022-12-08T04:50:45.383Z,100339.16
2022-12-08T04:53:13.757Z,100339.81
2022-12-08T04:55:43.854Z,100346.66
2022-12-08T04:58:15.659Z,100340.09
2022-12-08T05:00:43.395Z,100324.81
2022-12-08T05:03:10.554Z,100318.19
2022-12-08T05:05:37.512Z,100330.84
2022-12-08T05:08:05.177Z,100328.25
2022-12-08T05:10:32.843Z,100330.00
2022-12-08T05:13:00.195Z,100327.31
2022-12-08T05:15:27.142Z,100322.25
2022-12-08T05:17:54.120Z,100317.94
2022-12-08T05:20:21.049Z,100324.72
2022-12-08T05:22:47.993Z,100322.19
2022-12-08T05:25:15.145Z,100321.19
2022-12-08T05:27:43.260Z,100323.09
2022-12-08T05:30:10.461Z,100318.00
2022-12-08T05:32:37.460Z,100302.69
2022-12-08T05:35:04.705Z,100307.09
2022-12-08T05:37:31.714Z,100311.31
2022-12-08T05:39:58.751Z,100308.88
2022-12-08T05:42:25.680Z,100323.13
2022-12-08T05:44:52.804Z,100314.81
2022-12-08T05:47:19.908Z,100313.03
2022-12-08T05:49:46.897Z,100311.47
2022-12-08T05:52:13.914Z,100318.03
2022-12-08T05:54:40.788Z,100326.44
2022-12-08T05:57:07.635Z,100329.81
2022-12-08T05:59:34.595Z,100327.38
2022-12-08T06:02:01.686Z,100340.03
2022-12-08T06:04:28.652Z,100328.22
2022-12-08T06:06:55.868Z,100314.75
2022-12-08T06:09:22.800Z,100313.91
2022-12-08T06:11:49.770Z,100321.41
2022-12-08T06:14:16.816Z,100316.34
2022-12-08T06:16:43.864Z,100311.19
2022-12-08T06:19:10.901Z,100313.78
2022-12-08T06:21:37.825Z,100312.75
2022-12-08T06:24:04.898Z,100315.44
2022-12-08T06:26:31.815Z,100308.72
2022-12-08T06:29:00.814Z,100312.19
2022-12-08T06:31:28.493Z,100303.59
2022-12-08T06:33:55.586Z,100305.97
2022-12-08T06:36:24.967Z,100302.06
2022-12-08T06:38:52.728Z,100310.38
2022-12-08T06:41:19.814Z,100301.81
2022-12-08T06:43:46.780Z,100305.19
2022-12-08T06:46:17.381Z,100305.84
2022-12-08T06:48:44.696Z,100312.78
2022-12-08T06:51:13.009Z,100307.78
2022-12-08T06:53:40.948Z,100307.75
2022-12-08T06:56:08.295Z,100311.91
2022-12-08T06:58:36.113Z,100322.19
2022-12-08T07:01:09.127Z,100325.44
2022-12-08T07:03:37.537Z,100319.38
2022-12-08T07:06:05.329Z,100297.47
2022-12-08T07:08:33.630Z,100306.75
2022-12-08T07:11:06.204Z,100313.25
2022-12-08T07:13:33.246Z,100310.84
2022-12-08T07:16:00.108Z,100316.03
2022-12-08T07:18:27.017Z,100316.09
2022-12-08T07:20:53.902Z,100316.06
2022-12-08T07:23:20.843Z,100314.28
2022-12-08T07:25:47.803Z,100311.53
2022-12-08T07:28:14.820Z,100313.25
2022-12-08T07:30:41.809Z,100319.97
2022-12-08T07:33:08.874Z,100330.03
2022-12-08T07:35:35.892Z,100309.84
2022-12-08T07:38:02.972Z,100320.84
2022-12-08T07:40:29.877Z,100307.25
2022-12-08T07:42:56.843Z,100308.03
2022-12-08T07:45:31.112Z,100291.63
2022-12-08T07:47:58.659Z,100300.31
2022-12-08T07:50:25.533Z,100284.91
2022-12-08T07:52:52.431Z,100289.06
2022-12-08T07:55:19.493Z,100284.00
2022-12-08T07:57:46.359Z,100288.16
2022-12-08T08:00:14.305Z,100283.97
2022-12-08T08:02:41.889Z,100281.47
2022-12-08T08:05:09.535Z,100256.03
2022-12-08T08:07:37.378Z,100265.78
2022-12-08T08:10:05.785Z,100275.47
2022-12-08T08:12:33.534Z,100261.94
2022-12-08T08:15:01.850Z,100269.28
2022-12-08T08:17:31.328Z,100274.13
2022-12-08T08:19:58.383Z,100276.94
2022-12-08T08:22:26.885Z,100282.78
2022-12-08T08:24:54.451Z,100266.72
2022-12-08T08:27:21.495Z,100276.22
2022-12-08T08:29:48.497Z,100273.63
2022-12-08T08:32:15.395Z,100271.78
2022-12-08T08:34:42.400Z,100253.97
2022-12-08T08:37:09.352Z,100273.78
2022-12-08T08:39:36.404Z,100274.00
2022-12-08T08:42:03.446Z,100265.53
2022-12-08T08:44:30.391Z,100263.72
2022-12-08T08:46:57.408Z,100275.31
2022-12-08T08:49:24.676Z,100264.66
2022-12-08T08:51:52.334Z,100277.28
2022-12-08T08:54:20.486Z,100271.34
2022-12-08T08:56:48.477Z,100261.19
2022-12-08T08:59:15.437Z,100268.00
2022-12-08T09:01:42.382Z,100270.63
2022-12-08T09:04:10.365Z,100271.47
2022-12-08T09:06:38.151Z,100279.94
2022-12-08T09:09:05.667Z,100272.63
2022-12-08T09:11:33.202Z,100268.09
2022-12-08T09:14:00.480Z,100267.84
2022-12-08T09:16:27.523Z,100263.50
2022-12-08T09:18:54.604Z,100262.72
2022-12-08T09:21:25.887Z,100268.69
2022-12-08T09:23:55.056Z,100255.13
2022-12-08T09:26:22.623Z,100262.91
2022-12-08T09:28:51.519Z,100256.94
2022-12-08T09:31:19.962Z,100253.63
2022-12-08T09:33:47.827Z,100254.16
2022-12-08T09:36:15.635Z,100239.13
2022-12-08T09:38:42.627Z,100238.88
2022-12-08T09:41:48.501Z,100262.31
2022-12-08T09:44:55.293Z,100258.06
2022-12-08T09:47:35.497Z,100265.84
2022-12-08T09:50:18.091Z,100263.34
2022-12-08T09:52:59.836Z,100248.09
2022-12-08T09:55:53.156Z,100232.81
2022-12-08T09:58:22.222Z,100250.50
2022-12-08T10:00:49.177Z,100249.69
2022-12-08T10:03:17.068Z,100248.66
2022-12-08T10:05:56.079Z,100239.16
2022-12-08T10:08:36.392Z,100253.94
2022-12-08T10:11:14.416Z,100245.66
2022-12-08T10:14:06.845Z,100247.28
2022-12-08T10:16:39.493Z,100239.81
2022-12-08T10:19:25.605Z,100251.47
2022-12-08T10:21:53.855Z,100251.31
2022-12-08T10:25:00.305Z,100248.88
2022-12-08T10:27:28.022Z,100253.19
2022-12-08T10:29:55.029Z,100197.44
2022-12-08T10:32:24.649Z,100251.41
2022-12-08T10:35:12.255Z,100249.63
2022-12-08T10:37:40.025Z,100238.81
2022-12-08T10:40:19.094Z,100248.00
2022-12-08T10:42:53.622Z,100247.13
2022-12-08T10:45:23.685Z,100248.75
2022-12-08T10:48:18.466Z,100239.22
2022-12-08T10:50:55.761Z,100246.72
2022-12-08T10:53:24.832Z,100245.28
2022-12-08T10:56:05.103Z,100247.44
2022-12-08T10:58:42.484Z,100234.66
2022-12-08T11:01:21.687Z,100237.13
2022-12-08T11:04:01.237Z,100235.06
2022-12-08T11:06:35.057Z,100231.66
2022-12-08T11:09:15.755Z,100231.72
2022-12-08T11:11:51.850Z,100236.75
2022-12-08T11:14:32.477Z,100240.41
2022-12-08T11:17:08.745Z,100233.38
2022-12-08T11:19:41.032Z,100234.53
2022-12-08T11:22:30.075Z,100235.13
2022-12-08T11:25:02.908Z,100156.41
2022-12-08T11:27:33.272Z,100220.13
2022-12-08T11:30:02.223Z,100235.44
2022-12-08T11:32:31.361Z,100228.34
2022-12-08T11:35:03.945Z,100232.63
2022-12-08T11:37:40.665Z,100232.88
2022-12-08T11:40:23.331Z,100232.91
2022-12-08T11:42:59.959Z,100237.78
2022-12-08T11:45:32.571Z,100237.91
2022-12-08T11:48:16.990Z,100237.06
2022-12-08T11:50:55.581Z,100228.97
2022-12-08T11:53:44.530Z,100240.31
2022-12-08T11:56:35.013Z,100237.63
2022-12-08T11:59:25.913Z,100241.03
2022-12-08T12:01:53.486Z,100243.13
2022-12-08T12:04:42.460Z,100249.09
2022-12-08T12:07:48.155Z,100249.53
2022-12-08T12:10:27.083Z,100253.63
2022-12-08T12:13:02.804Z,100234.19
2022-12-08T12:15:54.917Z,100249.50
2022-12-08T12:18:50.122Z,100243.53
2022-12-08T12:21:26.607Z,100244.22
2022-12-08T12:24:10.427Z,100243.50
2022-12-08T12:26:49.337Z,100236.38
2022-12-08T12:29:23.913Z,100244.91
2022-12-08T12:31:59.336Z,100235.50
2022-12-08T12:34:44.744Z,100245.06
2022-12-08T12:37:15.397Z,100246.78
2022-12-08T12:40:00.914Z,100255.22
2022-12-08T12:42:44.450Z,100255.13
2022-12-08T12:45:17.109Z,100249.97
2022-12-08T12:47:55.859Z,100264.13
2022-12-08T12:50:32.506Z,100269.53
2022-12-08T12:53:15.672Z,100267.00
2022-12-08T12:55:45.843Z,100267.81
2022-12-08T12:58:28.001Z,100267.97
2022-12-08T13:01:10.362Z,100274.50
2022-12-08T13:04:02.687Z,100274.31
2022-12-08T13:06:41.247Z,100266.91
2022-12-08T13:09:20.729Z,100274.38
2022-12-08T13:11:52.939Z,100274.38
2022-12-08T13:14:46.797Z,100278.47
2022-12-08T13:17:23.304Z,100276.06
2022-12-08T13:19:55.990Z,100273.44
2022-12-08T13:22:47.406Z,100262.41
2022-12-08T13:25:38.952Z,100265.66
2022-12-08T13:28:27.910Z,100270.84
2022-12-08T13:31:02.085Z,100263.72
2022-12-08T13:33:38.988Z,100277.06
2022-12-08T13:36:17.518Z,100275.22
2022-12-08T13:38:47.380Z,100263.22
2022-12-08T13:41:21.983Z,100271.69
2022-12-08T13:44:50.227Z,100272.72
2022-12-08T13:58:38.317Z,100258.19
2022-12-08T14:01:12.355Z,100269.81
2022-12-08T14:06:51.784Z,100271.53
2022-12-08T14:09:37.933Z,100261.41
2022-12-08T14:12:13.897Z,100273.50
2022-12-08T14:17:32.446Z,100279.94
2022-12-08T14:20:21.896Z,100291.81
2022-12-08T14:22:50.388Z,100289.25
2022-12-08T14:25:19.072Z,100275.03
2022-12-08T14:27:47.945Z,100290.25
2022-12-08T14:30:15.113Z,100298.66
2022-12-08T14:32:41.933Z,100289.91
2022-12-08T14:35:08.858Z,100297.44
2022-12-08T14:37:35.774Z,100302.56
2022-12-08T14:40:25.074Z,100304.09
2022-12-08T14:43:05.266Z,100307.81
2022-12-08T14:45:34.957Z,100307.91
2022-12-08T14:48:23.607Z,100316.63
2022-12-08T14:51:12.333Z,100324.16
2022-12-08T14:54:00.125Z,100317.19
2022-12-08T14:56:39.236Z,100322.28
2022-12-08T14:59:06.139Z,100326.59
2022-12-08T15:01:34.375Z,100326.56
2022-12-08T15:04:07.996Z,100331.56
2022-12-08T15:06:35.361Z,100332.50
2022-12-08T15:09:16.676Z,100340.94
2022-12-08T15:11:44.177Z,100329.84
2022-12-08T15:14:29.354Z,100339.25
2022-12-08T15:16:56.861Z,100342.72
2022-12-08T15:19:32.427Z,100337.03
2022-12-08T15:22:11.042Z,100352.84
2022-12-08T15:24:38.116Z,100347.66
2022-12-08T15:27:05.122Z,100354.94
2022-12-08T15:29:32.352Z,100355.84
2022-12-08T15:32:01.604Z,100360.75
2022-12-08T15:34:28.724Z,100359.94
2022-12-08T15:36:55.717Z,100369.25
2022-12-08T15:39:34.881Z,100367.72
2022-12-08T15:42:03.456Z,100359.06
2022-12-08T15:44:32.856Z,100365.91
2022-12-08T15:47:00.122Z,100367.50
2022-12-08T15:49:27.342Z,100357.09
2022-12-08T15:52:01.950Z,100360.56
2022-12-08T15:54:34.892Z,100362.34
2022-12-08T15:59:49.267Z,100359.91
2022-12-08T16:02:22.333Z,100357.50
2022-12-08T16:07:38.401Z,100364.84
2022-12-08T16:10:07.999Z,100357.97
2022-12-08T16:16:00.714Z,100360.34
2022-12-08T16:18:32.808Z,100363.09
2022-12-08T16:21:19.042Z,100368.38
2022-12-08T16:23:47.251Z,100365.09
2022-12-08T16:27:01.068Z,100357.16
2022-12-08T16:29:07.598Z,100374.03
2022-12-08T16:31:34.840Z,100362.19
2022-12-08T16:34:01.963Z,100370.72
2022-12-08T16:36:28.989Z,100377.50
2022-12-08T16:38:55.877Z,100379.09
2022-12-08T16:41:41.349Z,100369.13
2022-12-08T16:44:08.422Z,100373.78
2022-12-08T16:46:36.105Z,100372.63
2022-12-08T16:49:04.735Z,100378.34
2022-12-08T16:51:31.772Z,100373.28
2022-12-08T16:53:58.807Z,100345.56
2022-12-08T16:56:32.542Z,100375.88
2022-12-08T16:59:01.747Z,100369.25
2022-12-08T17:01:28.835Z,100371.72
2022-12-08T17:04:29.105Z,100366.50
2022-12-08T17:06:42.754Z,100369.59
2022-12-08T17:09:09.644Z,100370.72
2022-12-08T17:11:43.081Z,100367.94
2022-12-08T17:14:14.238Z,100369.78
2022-12-08T17:16:42.586Z,100359.66
2022-12-08T17:19:09.944Z,100360.31
2022-12-08T17:21:36.989Z,100348.69
2022-12-08T17:24:04.897Z,100355.47
2022-12-08T17:26:31.856Z,100360.28
2022-12-08T17:29:00.888Z,100356.06
2022-12-08T17:31:30.613Z,100368.59
2022-12-08T17:34:00.072Z,100375.25
2022-12-08T17:36:27.074Z,100369.44
2022-12-08T17:38:54.541Z,100360.44
2022-12-08T17:41:21.586Z,100361.97
2022-12-08T17:43:48.531Z,100366.72
2022-12-08T17:46:19.558Z,100361.34
2022-12-08T17:48:47.414Z,100364.19
2022-12-08T17:51:15.034Z,100375.09
2022-12-08T17:53:42.102Z,100370.22
2022-12-08T17:56:18.880Z,100366.88
2022-12-08T17:58:52.596Z,100369.09
2022-12-08T18:01:21.598Z,100388.84
2022-12-08T18:03:48.670Z,100370.50
2022-12-08T18:06:17.774Z,100387.50
2022-12-08T18:08:45.245Z,100381.56
2022-12-08T18:11:15.880Z,100368.56
2022-12-08T18:13:42.816Z,100360.06
2022-12-08T18:16:10.256Z,100381.31
2022-12-08T18:18:37.289Z,100385.69
2022-12-08T18:21:04.525Z,100382.19
2022-12-08T18:23:31.779Z,100376.53
2022-12-08T18:25:59.025Z,100380.84
2022-12-08T18:28:26.002Z,100397.59
2022-12-08T18:30:52.960Z,100393.34
2022-12-08T18:33:19.961Z,100393.31
2022-12-08T18:35:46.902Z,100390.72
2022-12-08T18:38:14.391Z,100390.63
2022-12-08T18:40:41.394Z,100404.13
2022-12-08T18:43:08.738Z,100380.56
2022-12-08T18:45:38.824Z,100398.16
2022-12-08T18:48:08.340Z,100400.84
2022-12-08T18:50:35.273Z,100387.84
2022-12-08T18:53:02.219Z,100401.69
2022-12-08T18:55:29.297Z,100384.59
2022-12-08T18:57:56.241Z,100400.56
2022-12-08T19:00:23.336Z,100400.63
2022-12-08T19:02:50.376Z,100397.28
2022-12-08T19:05:17.703Z,100392.13
2022-12-08T19:07:45.831Z,100390.31
2022-12-08T19:10:13.214Z,100393.91
2022-12-08T19:12:40.338Z,100379.94
2022-12-08T19:15:08.242Z,100378.28
2022-12-08T19:17:35.421Z,100388.59
2022-12-08T19:20:02.529Z,100389.53
2022-12-08T19:22:30.426Z,100394.44
2022-12-08T19:24:57.389Z,100392.31
2022-12-08T19:27:24.289Z,100397.59
2022-12-08T19:29:51.324Z,100392.41
2022-12-08T19:32:18.563Z,100384.84
2022-12-08T19:34:45.473Z,100396.59
2022-12-08T19:37:13.083Z,100399.09
2022-12-08T19:39:59.279Z,100398.34
2022-12-08T19:42:45.115Z,100399.84
2022-12-08T19:45:15.766Z,100400.88
2022-12-08T19:47:43.094Z,100409.25
2022-12-08T19:50:30.645Z,100402.28
2022-12-08T19:52:57.904Z,100405.22
2022-12-08T19:55:25.929Z,100396.66
2022-12-08T19:57:53.522Z,100403.97
2022-12-08T20:00:21.382Z,100402.44
2022-12-08T20:02:48.496Z,100402.91
2022-12-08T20:05:16.144Z,100404.84
2022-12-08T20:07:43.705Z,100390.81
2022-12-08T20:10:22.176Z,100398.13
2022-12-08T20:12:49.237Z,100384.44
2022-12-08T20:15:16.326Z,100414.31
2022-12-08T20:17:43.547Z,100417.19
2022-12-08T20:20:12.208Z,100422.22
2022-12-08T20:22:39.193Z,100430.25
2022-12-08T20:25:06.655Z,100429.69
2022-12-08T20:27:33.726Z,100425.16
2022-12-08T20:30:00.670Z,100430.94
2022-12-08T20:32:27.781Z,100431.91
2022-12-08T20:34:54.778Z,100429.28
2022-12-08T20:37:21.652Z,100415.94
2022-12-08T20:39:48.872Z,100413.47
2022-12-08T20:42:15.872Z,100417.59
2022-12-08T20:44:44.678Z,100414.72
2022-12-08T20:47:12.879Z,100417.03
2022-12-08T20:49:40.085Z,100414.81
2022-12-08T20:52:08.265Z,100412.25
2022-12-08T20:54:37.014Z,100418.06
2022-12-08T20:57:04.388Z,100424.69
2022-12-08T20:59:31.561Z,100423.09
2022-12-08T21:02:00.679Z,100423.56
2022-12-08T21:04:28.120Z,100426.31
2022-12-08T21:06:55.144Z,100423.72
2022-12-08T21:09:22.475Z,100425.47
2022-12-08T21:11:49.533Z,100433.13
2022-12-08T21:14:16.510Z,100429.59
2022-12-08T21:16:43.468Z,100424.63
2022-12-08T21:19:11.380Z,100425.47
2022-12-08T21:21:38.837Z,100422.66
2022-12-08T21:24:06.339Z,100421.88
2022-12-08T21:26:33.449Z,100422.78
2022-12-08T21:29:00.391Z,100411.03
2022-12-08T21:31:29.512Z,100413.56
2022-12-08T21:33:56.664Z,100426.13
2022-12-08T21:36:23.926Z,100428.59
2022-12-08T21:38:51.307Z,100427.78
2022-12-08T21:41:41.745Z,100435.38
2022-12-08T21:44:11.034Z,100427.91
2022-12-08T21:46:38.546Z,100427.03
2022-12-08T21:49:05.701Z,100454.56
2022-12-08T21:51:33.877Z,100447.22
2022-12-08T21:54:01.060Z,100440.44
2022-12-08T21:56:28.193Z,100444.69
2022-12-08T21:58:55.265Z,100436.94
2022-12-08T22:01:22.333Z,100446.81
2022-12-08T22:03:49.456Z,100445.78
2022-12-08T22:06:16.723Z,100443.13
2022-12-08T22:08:43.999Z,100447.78
2022-12-08T22:11:12.091Z,100444.19
2022-12-08T22:13:41.266Z,100443.44
2022-12-08T22:16:11.519Z,100437.06
2022-12-08T22:18:38.849Z,100439.13
2022-12-08T22:21:15.427Z,100431.47
2022-12-08T22:23:42.935Z,100450.03
2022-12-08T22:26:11.415Z,100430.63
2022-12-08T22:28:41.670Z,100436.56
2022-12-08T22:31:14.632Z,100446.03
2022-12-08T22:33:42.768Z,100445.16
2022-12-08T22:36:22.389Z,100448.34
2022-12-08T22:38:50.594Z,100431.50
2022-12-08T22:41:18.251Z,100453.41
2022-12-08T22:43:46.007Z,100449.81
2022-12-08T22:46:16.312Z,100463.66
2022-12-08T22:48:43.770Z,100461.28
2022-12-08T22:51:11.487Z,100454.25
2022-12-08T22:53:38.836Z,100455.84
2022-12-08T22:56:07.059Z,100460.22
2022-12-08T22:58:34.457Z,100456.09
2022-12-08T23:01:01.356Z,100455.84
2022-12-08T23:03:28.458Z,100455.59
2022-12-08T23:05:55.663Z,100448.78
2022-12-08T23:08:23.741Z,100454.00
2022-12-08T23:10:52.316Z,100455.75
2022-12-08T23:13:20.172Z,100443.88
2022-12-08T23:15:47.771Z,100452.94
2022-12-08T23:18:19.167Z,100457.63
2022-12-08T23:20:46.949Z,100450.47
2022-12-08T23:23:14.506Z,100463.56
2022-12-08T23:25:43.079Z,100459.78
2022-12-08T23:28:10.745Z,100455.75
2022-12-08T23:30:40.442Z,100459.06
2022-12-08T23:33:07.848Z,100458.22
2022-12-08T23:35:35.052Z,100458.03
2022-12-08T23:38:02.166Z,100459.94
2022-12-08T23:40:29.062Z,100452.81
2022-12-08T23:42:56.101Z,100434.47
2022-12-08T23:45:23.009Z,100454.66
2022-12-08T23:47:49.992Z,100453.31
2022-12-08T23:50:17.344Z,100454.56
2022-12-08T23:52:44.825Z,100463.16
2022-12-08T23:55:11.806Z,100447.41
2022-12-08T23:57:40.090Z,100470.59
